Time;durP1;ratioP1;P1;durP2;ratioP2;P2;SDS_P1;SDS_P2;PMS_P1;PMS_P2;Temp;Humidity;BMP_temperature;BMP_pressure;BME280_temperature;BME280_humidity;BME280_pressure;Samples;Min_cycle;Max_cycle;Signal;HPM_P1;HPM_P2
2021/04/27 00:00:23;;;;;;;4.68;3.40;;;13.40;33.10;;;;;;1489549;39;20136;-53
2021/04/27 00:01:44;;;;;;;4.13;3.40;;;13.30;33.10;;;;;;1489502;39;20032;-53
2021/04/27 00:03:06;;;;;;;3.53;3.10;;;13.30;33.20;;;;;;1489232;39;20299;-51
2021/04/27 00:04:27;;;;;;;4.57;3.33;;;13.30;33.10;;;;;;1491625;39;20194;-52
2021/04/27 00:05:48;;;;;;;3.33;2.88;;;13.30;33.10;;;;;;1491265;39;20261;-48
2021/04/27 00:07:09;;;;;;;3.90;3.20;;;13.30;33.60;;;;;;1490667;39;20344;-52
2021/04/27 00:08:30;;;;;;;3.33;3.03;;;13.30;33.10;;;;;;1490317;39;20047;-52
2021/04/27 00:09:51;;;;;;;4.35;3.10;;;13.30;33.30;;;;;;1490649;39;20262;-52
2021/04/27 00:11:12;;;;;;;5.28;3.35;;;13.30;33.50;;;;;;1490966;39;20064;-52
2021/04/27 00:12:34;;;;;;;5.57;3.15;;;13.30;33.40;;;;;;1490165;39;20035;-53
2021/04/27 00:13:55;;;;;;;5.68;3.28;;;13.30;33.30;;;;;;1491213;39;20040;-52
2021/04/27 00:15:19;;;;;;;4.18;2.75;;;13.30;33.30;;;;;;1491718;39;20295;-49
2021/04/27 00:16:40;;;;;;;4.72;3.22;;;13.20;33.30;;;;;;1490370;39;20120;-52
2021/04/27 00:18:02;;;;;;;3.50;3.20;;;13.20;33.40;;;;;;1491807;39;20039;-51
2021/04/27 00:19:22;;;;;;;3.75;3.20;;;13.20;33.40;;;;;;1490806;39;20063;-50
2021/04/27 00:20:43;;;;;;;4.80;3.42;;;13.30;33.50;;;;;;1490338;39;20031;-48
2021/04/27 00:22:04;;;;;;;4.45;3.50;;;13.20;33.50;;;;;;1488636;39;20086;-50
2021/04/27 00:23:26;;;;;;;3.95;3.20;;;13.20;33.50;;;;;;1487869;39;20121;-52
2021/04/27 00:24:47;;;;;;;6.18;3.60;;;13.20;33.60;;;;;;1489785;39;20039;-49
2021/04/27 00:26:08;;;;;;;6.13;3.38;;;13.20;33.50;;;;;;1491063;39;20042;-48
2021/04/27 00:27:29;;;;;;;3.58;3.10;;;13.20;33.40;;;;;;1488424;39;20081;-51
2021/04/27 00:28:50;;;;;;;3.72;3.33;;;13.20;33.50;;;;;;1491078;39;20382;-49
2021/04/27 00:30:11;;;;;;;5.15;3.38;;;13.20;33.60;;;;;;1491212;39;20035;-52
2021/04/27 00:31:33;;;;;;;4.63;3.28;;;13.20;33.50;;;;;;1490853;39;20030;-51
2021/04/27 00:32:54;;;;;;;5.28;3.47;;;13.10;33.50;;;;;;1490863;39;20047;-50
2021/04/27 00:34:16;;;;;;;3.70;3.28;;;13.10;33.60;;;;;;1491013;39;20084;-50
2021/04/27 00:35:37;;;;;;;4.13;3.05;;;13.10;33.70;;;;;;1490370;39;20165;-52
2021/04/27 00:36:58;;;;;;;5.00;3.45;;;13.10;33.80;;;;;;1489885;39;20020;-49
2021/04/27 00:38:19;;;;;;;3.60;3.10;;;13.00;33.80;;;;;;1485043;40;20039;-51
2021/04/27 00:39:40;;;;;;;3.72;3.42;;;13.10;33.90;;;;;;1489858;39;20059;-51
2021/04/27 00:41:01;;;;;;;4.97;3.45;;;13.00;33.90;;;;;;1490706;39;20036;-53
2021/04/27 00:42:33;;;;;;;6.78;3.53;;;13.00;34.00;;;;;;1490757;39;20027;-51
2021/04/27 00:43:54;;;;;;;4.38;3.42;;;13.00;34.10;;;;;;1490490;39;20039;-51
2021/04/27 00:45:18;;;;;;;6.13;3.55;;;13.00;33.90;;;;;;1489569;39;20125;-52
2021/04/27 00:46:39;;;;;;;5.35;3.17;;;13.00;34.00;;;;;;1491131;39;20032;-53
2021/04/27 00:48:00;;;;;;;3.78;3.15;;;13.00;33.90;;;;;;1491649;39;20513;-51
2021/04/27 00:49:21;;;;;;;3.95;3.05;;;12.90;34.00;;;;;;1490820;39;20119;-50
2021/04/27 00:50:42;;;;;;;5.43;3.20;;;12.90;33.90;;;;;;1490930;39;20036;-51
2021/04/27 00:52:03;;;;;;;4.47;3.38;;;12.90;34.00;;;;;;1490612;39;20032;-50
2021/04/27 00:53:25;;;;;;;4.68;3.80;;;12.90;34.10;;;;;;1486247;40;20278;-51
2021/04/27 00:54:47;;;;;;;3.97;3.25;;;12.90;34.20;;;;;;1490469;39;20039;-49
2021/04/27 00:56:08;;;;;;;3.72;3.30;;;12.90;34.20;;;;;;1491408;39;20035;-49
2021/04/27 00:57:29;;;;;;;5.53;3.50;;;12.90;34.20;;;;;;1489224;39;20027;-51
2021/04/27 00:58:49;;;;;;;6.60;3.22;;;12.90;34.20;;;;;;1489313;39;20068;-53
2021/04/27 01:00:18;;;;;;;3.83;3.45;;;12.90;34.20;;;;;;1490873;39;20039;-54
2021/04/27 01:01:39;;;;;;;5.43;3.45;;;12.90;34.20;;;;;;1491180;39;20241;-52
2021/04/27 01:03:01;;;;;;;4.47;3.35;;;12.90;34.20;;;;;;1489189;39;20269;-52
2021/04/27 01:04:22;;;;;;;5.38;3.50;;;12.80;34.40;;;;;;1491245;39;20036;-54
2021/04/27 01:05:44;;;;;;;5.35;3.38;;;12.80;34.30;;;;;;1490923;39;20028;-51
2021/04/27 01:07:05;;;;;;;4.45;3.38;;;12.80;34.30;;;;;;1489363;39;20036;-49
2021/04/27 01:08:35;;;;;;;5.40;3.97;;;12.80;34.40;;;;;;1491240;39;20055;-51
2021/04/27 01:10:03;;;;;;;6.60;3.30;;;12.80;34.60;;;;;;1491329;39;20039;-53
2021/04/27 01:11:39;;;;;;;5.13;4.13;;;12.80;34.60;;;;;;1488860;39;20036;-51
2021/04/27 01:13:07;;;;;;;5.72;3.65;;;12.80;34.90;;;;;;1489991;39;20046;-52
2021/04/27 01:14:38;;;;;;;5.78;3.53;;;12.80;34.70;;;;;;1490768;39;20040;-50
2021/04/27 01:15:59;;;;;;;6.43;4.05;;;12.80;34.80;;;;;;1490982;39;20044;-49
2021/04/27 01:17:22;;;;;;;6.18;3.58;;;12.70;34.50;;;;;;1490280;39;20036;-51
2021/04/27 01:18:48;;;;;;;4.93;3.90;;;12.70;34.50;;;;;;1490520;39;20034;-52
2021/04/27 01:20:20;;;;;;;6.03;3.78;;;12.70;34.50;;;;;;1488673;39;20432;-50
2021/04/27 01:21:41;;;;;;;7.25;4.05;;;12.70;34.50;;;;;;1491118;39;20036;-51
2021/04/27 01:23:22;;;;;;;4.80;3.38;;;12.70;34.50;;;;;;1491061;39;20032;-52
2021/04/27 01:24:50;;;;;;;6.72;4.30;;;12.70;34.80;;;;;;1485994;39;20413;-50
2021/04/27 01:26:20;;;;;;;5.03;3.92;;;12.70;34.50;;;;;;1490296;39;20027;-52
2021/04/27 01:27:42;;;;;;;7.70;4.03;;;12.60;34.70;;;;;;1490409;39;20123;-52
2021/04/27 01:29:08;;;;;;;6.22;4.30;;;12.60;34.60;;;;;;1490055;39;20120;-50
2021/04/27 01:30:31;;;;;;;5.22;3.78;;;12.60;34.80;;;;;;1490046;39;20485;-54
2021/04/27 01:31:53;;;;;;;5.30;4.20;;;12.60;34.70;;;;;;1489265;39;20292;-52
2021/04/27 01:33:18;;;;;;;7.50;4.70;;;12.60;34.90;;;;;;1490665;39;20042;-53
2021/04/27 01:34:42;;;;;;;5.45;4.13;;;12.60;35.00;;;;;;1491538;39;20097;-50
2021/04/27 01:36:04;;;;;;;6.43;4.55;;;12.60;34.90;;;;;;1490479;39;20054;-55
2021/04/27 01:37:25;;;;;;;6.85;4.38;;;12.60;35.40;;;;;;1489889;39;20028;-51
2021/04/27 01:38:46;;;;;;;4.68;4.15;;;12.50;34.80;;;;;;1490030;39;20024;-51
2021/04/27 01:40:08;;;;;;;11.93;5.05;;;12.50;34.80;;;;;;1491315;39;20126;-52
2021/04/27 01:41:29;;;;;;;6.10;4.65;;;12.50;34.90;;;;;;1490427;39;20031;-53
2021/04/27 01:42:50;;;;;;;6.22;4.35;;;12.50;35.00;;;;;;1490267;39;20280;-52
2021/04/27 01:44:12;;;;;;;5.53;4.57;;;12.50;35.20;;;;;;1490276;39;20036;-50
2021/04/27 01:45:34;;;;;;;6.47;5.00;;;12.50;35.20;;;;;;1488589;39;20024;-53
2021/04/27 01:46:57;;;;;;;4.90;4.40;;;12.50;35.20;;;;;;1490852;39;20032;-52
2021/04/27 01:48:19;;;;;;;5.70;4.63;;;12.50;35.10;;;;;;1491112;39;20184;-51
2021/04/27 01:49:43;;;;;;;6.80;4.55;;;12.50;35.10;;;;;;1491125;39;20024;-52
2021/04/27 01:51:08;;;;;;;6.45;4.53;;;12.40;35.10;;;;;;1490352;39;20111;-53
2021/04/27 01:52:29;;;;;;;6.93;4.20;;;12.40;35.00;;;;;;1490457;39;20075;-53
2021/04/27 01:53:51;;;;;;;5.57;4.85;;;12.40;34.90;;;;;;1488421;39;20109;-50
2021/04/27 01:55:12;;;;;;;6.18;4.80;;;12.40;35.10;;;;;;1489338;39;20060;-51
2021/04/27 01:56:35;;;;;;;5.05;4.55;;;12.40;35.30;;;;;;1490460;39;20083;-50
2021/04/27 01:57:57;;;;;;;5.57;4.53;;;12.40;35.40;;;;;;1488756;39;20056;-50
2021/04/27 01:59:18;;;;;;;5.30;4.22;;;12.40;35.50;;;;;;1490731;39;20024;-50
2021/04/27 02:00:39;;;;;;;5.78;4.38;;;12.30;35.40;;;;;;1490158;39;20031;-51
2021/04/27 02:02:00;;;;;;;6.60;4.65;;;12.30;35.30;;;;;;1486696;40;20093;-50
2021/04/27 02:03:21;;;;;;;6.50;4.60;;;12.30;35.20;;;;;;1489498;39;20036;-51
2021/04/27 02:04:42;;;;;;;8.68;4.68;;;12.30;35.20;;;;;;1490670;39;20016;-49
2021/04/27 02:06:03;;;;;;;5.90;5.10;;;12.30;35.30;;;;;;1490039;39;20277;-52
2021/04/27 02:07:25;;;;;;;5.55;4.22;;;12.30;35.50;;;;;;1490190;39;20028;-52
2021/04/27 02:08:58;;;;;;;5.57;4.63;;;12.20;35.50;;;;;;1491185;39;20059;-49
2021/04/27 02:10:21;;;;;;;6.80;4.65;;;12.30;35.50;;;;;;1490588;39;20395;-50
2021/04/27 02:11:45;;;;;;;7.65;4.57;;;12.30;35.40;;;;;;1490451;39;20111;-52
2021/04/27 02:13:12;;;;;;;4.88;4.45;;;12.20;35.30;;;;;;1490286;39;20043;-50
2021/04/27 02:14:33;;;;;;;8.70;4.88;;;12.20;35.60;;;;;;1488658;39;20082;-50
2021/04/27 02:15:55;;;;;;;5.07;4.57;;;12.20;35.50;;;;;;1489379;39;20031;-49
2021/04/27 02:17:19;;;;;;;6.75;4.82;;;12.20;35.50;;;;;;1490974;39;20024;-51
2021/04/27 02:18:53;;;;;;;6.57;4.65;;;12.20;35.60;;;;;;1490568;39;20051;-49
2021/04/27 02:20:15;;;;;;;7.22;4.47;;;12.10;35.70;;;;;;1486622;40;20040;-53
2021/04/27 02:21:38;;;;;;;5.85;4.40;;;12.20;35.50;;;;;;1488514;39;20040;-49
2021/04/27 02:23:01;;;;;;;5.95;4.65;;;12.20;35.50;;;;;;1490708;39;20028;-49
2021/04/27 02:24:26;;;;;;;7.05;4.28;;;12.20;35.50;;;;;;1490255;39;20032;-50
2021/04/27 02:25:49;;;;;;;6.20;5.15;;;12.10;35.60;;;;;;1490523;39;20024;-49
2021/04/27 02:27:11;;;;;;;6.00;4.50;;;12.10;35.60;;;;;;1491135;39;20035;-54
2021/04/27 02:28:33;;;;;;;6.03;4.47;;;12.10;35.70;;;;;;1488715;39;20050;-51
2021/04/27 02:29:54;;;;;;;5.13;4.45;;;12.10;35.80;;;;;;1490517;39;20043;-52
2021/04/27 02:31:15;;;;;;;5.82;4.63;;;12.10;35.80;;;;;;1490327;39;20264;-50
2021/04/27 02:32:40;;;;;;;5.13;4.63;;;12.00;36.00;;;;;;1489632;39;20048;-53
2021/04/27 02:34:03;;;;;;;5.75;4.20;;;12.10;36.00;;;;;;1485470;39;20052;-51
2021/04/27 02:35:25;;;;;;;5.18;4.45;;;12.00;35.90;;;;;;1487565;39;20033;-52
2021/04/27 02:36:46;;;;;;;5.07;4.53;;;12.00;36.00;;;;;;1488601;39;20044;-49
2021/04/27 02:38:07;;;;;;;5.55;4.13;;;12.00;36.20;;;;;;1490854;39;20024;-49
2021/04/27 02:39:28;;;;;;;4.85;4.35;;;12.00;36.80;;;;;;1491062;39;20109;-50
2021/04/27 02:40:57;;;;;;;4.95;3.97;;;12.00;36.10;;;;;;1490815;39;20560;-53
2021/04/27 02:42:18;;;;;;;6.18;4.30;;;12.00;36.30;;;;;;1489506;39;20024;-49
2021/04/27 02:43:39;;;;;;;6.75;4.63;;;11.90;36.10;;;;;;1490797;39;20024;-53
2021/04/27 02:45:00;;;;;;;8.90;4.45;;;12.00;36.20;;;;;;1490638;39;20383;-50
2021/04/27 02:46:21;;;;;;;5.30;4.43;;;11.90;36.10;;;;;;1490336;39;20737;-53
2021/04/27 02:47:42;;;;;;;9.60;4.22;;;11.90;36.20;;;;;;1491117;39;20039;-50
2021/04/27 02:49:04;;;;;;;5.05;4.10;;;12.00;36.40;;;;;;1491200;39;20031;-49
2021/04/27 02:50:25;;;;;;;4.63;4.10;;;11.90;36.40;;;;;;1490031;39;20083;-54
2021/04/27 02:51:45;;;;;;;5.05;3.72;;;11.90;36.30;;;;;;1489764;39;20275;-49
2021/04/27 02:53:07;;;;;;;8.45;4.68;;;11.90;36.40;;;;;;1489433;39;20071;-49
2021/04/27 02:54:28;;;;;;;7.93;4.43;;;11.90;36.40;;;;;;1489258;39;20031;-51
2021/04/27 02:55:49;;;;;;;5.28;4.05;;;11.90;36.30;;;;;;1490740;39;20264;-50
2021/04/27 02:57:10;;;;;;;4.60;3.70;;;11.90;36.30;;;;;;1490545;39;20020;-51
2021/04/27 02:58:31;;;;;;;5.82;4.60;;;11.90;36.20;;;;;;1490194;39;20090;-52
2021/04/27 02:59:52;;;;;;;4.63;4.10;;;11.80;36.20;;;;;;1489903;39;20146;-49
2021/04/27 03:01:13;;;;;;;5.93;4.00;;;11.80;36.10;;;;;;1488003;39;20328;-50
2021/04/27 03:02:34;;;;;;;7.28;4.55;;;11.90;36.10;;;;;;1490313;39;20271;-49
2021/04/27 03:03:55;;;;;;;5.15;4.28;;;11.80;36.10;;;;;;1491127;39;20427;-52
2021/04/27 03:05:16;;;;;;;5.72;4.40;;;11.80;36.30;;;;;;1491444;39;20027;-50
2021/04/27 03:06:37;;;;;;;4.85;4.25;;;11.80;36.40;;;;;;1490521;39;20116;-51
2021/04/27 03:07:58;;;;;;;5.35;4.05;;;11.80;36.40;;;;;;1489162;39;20279;-49
2021/04/27 03:09:19;;;;;;;8.30;4.30;;;11.80;36.40;;;;;;1490005;39;20024;-50
2021/04/27 03:10:40;;;;;;;6.40;4.22;;;11.80;36.40;;;;;;1490182;39;20168;-51
2021/04/27 03:12:03;;;;;;;5.35;4.60;;;11.80;36.30;;;;;;1490663;39;20062;-49
2021/04/27 03:13:24;;;;;;;5.35;4.05;;;11.80;36.60;;;;;;1490103;39;20016;-50
2021/04/27 03:14:45;;;;;;;5.28;4.10;;;11.80;36.50;;;;;;1489234;39;20052;-52
2021/04/27 03:16:06;;;;;;;6.22;4.50;;;11.70;36.80;;;;;;1490415;39;20158;-52
2021/04/27 03:17:28;;;;;;;5.75;4.60;;;11.70;36.50;;;;;;1490328;39;20039;-48
2021/04/27 03:18:49;;;;;;;5.15;4.35;;;11.70;36.60;;;;;;1491320;39;20067;-51
2021/04/27 03:20:12;;;;;;;5.18;4.28;;;11.70;36.50;;;;;;1490836;39;20317;-50
2021/04/27 03:21:33;;;;;;;6.43;5.10;;;11.70;36.40;;;;;;1489841;39;20031;-49
2021/04/27 03:22:54;;;;;;;6.13;4.70;;;11.70;36.40;;;;;;1490300;39;20032;-48
2021/04/27 03:24:15;;;;;;;5.18;4.60;;;11.70;36.50;;;;;;1491410;39;20024;-49
2021/04/27 03:25:37;;;;;;;5.55;4.28;;;11.70;37.00;;;;;;1491227;39;20276;-52
2021/04/27 03:26:58;;;;;;;4.68;3.75;;;11.70;37.10;;;;;;1490398;39;20248;-54
2021/04/27 03:28:19;;;;;;;5.55;3.78;;;11.60;36.40;;;;;;1489669;39;20330;-51
2021/04/27 03:29:40;;;;;;;5.18;4.10;;;11.60;36.40;;;;;;1491270;39;20127;-49
2021/04/27 03:31:01;;;;;;;5.15;3.88;;;11.60;36.40;;;;;;1488640;39;20040;-54
2021/04/27 03:32:22;;;;;;;5.97;4.38;;;11.60;36.40;;;;;;1492413;39;20043;-54
2021/04/27 03:33:43;;;;;;;5.05;4.32;;;11.60;36.30;;;;;;1489437;39;20020;-49
2021/04/27 03:35:10;;;;;;;5.05;4.07;;;11.60;36.40;;;;;;1491118;39;20060;-51
2021/04/27 03:36:31;;;;;;;5.03;3.85;;;11.60;36.40;;;;;;1490562;39;20024;-50
2021/04/27 03:37:52;;;;;;;4.70;4.30;;;11.60;36.30;;;;;;1488382;39;20032;-52
2021/04/27 03:39:13;;;;;;;6.32;3.85;;;11.60;36.40;;;;;;1486978;40;20050;-48
2021/04/27 03:40:34;;;;;;;4.95;4.45;;;11.60;36.40;;;;;;1490137;39;20062;-48
2021/04/27 03:41:55;;;;;;;5.53;4.45;;;11.60;36.50;;;;;;1489466;39;20058;-50
2021/04/27 03:43:16;;;;;;;3.78;3.47;;;11.60;36.50;;;;;;1491023;39;20027;-50
2021/04/27 03:44:37;;;;;;;6.68;4.22;;;11.60;36.40;;;;;;1488785;39;20319;-49
2021/04/27 03:45:58;;;;;;;4.53;4.03;;;11.50;36.50;;;;;;1491355;39;20378;-50
2021/04/27 03:47:19;;;;;;;5.32;4.05;;;11.50;36.50;;;;;;1491618;39;20031;-50
2021/04/27 03:48:40;;;;;;;5.50;4.00;;;11.50;36.40;;;;;;1488363;39;20031;-54
2021/04/27 03:50:04;;;;;;;5.32;3.80;;;11.50;36.20;;;;;;1491092;39;20051;-52
2021/04/27 03:51:25;;;;;;;4.47;3.72;;;11.50;36.30;;;;;;1490282;39;20429;-49
2021/04/27 03:52:46;;;;;;;7.50;4.05;;;11.50;36.30;;;;;;1490522;39;20028;-51
2021/04/27 03:54:08;;;;;;;5.10;4.15;;;11.50;36.20;;;;;;1491286;39;20027;-51
2021/04/27 03:55:29;;;;;;;4.10;3.80;;;11.50;36.30;;;;;;1488615;39;20423;-50
2021/04/27 03:56:50;;;;;;;4.18;3.78;;;11.40;36.30;;;;;;1490802;39;20120;-49
2021/04/27 03:58:12;;;;;;;4.15;3.58;;;11.40;36.40;;;;;;1489367;39;20101;-50
2021/04/27 03:59:33;;;;;;;5.88;3.88;;;11.50;36.40;;;;;;1490736;39;20040;-50
2021/04/27 04:00:53;;;;;;;4.63;3.50;;;11.40;36.30;;;;;;1490365;39;20031;-52
2021/04/27 04:02:14;;;;;;;4.28;3.50;;;11.40;36.20;;;;;;1489505;39;20105;-50
2021/04/27 04:03:42;;;;;;;4.00;3.60;;;11.40;36.20;;;;;;1490391;39;20160;-51
2021/04/27 04:05:03;;;;;;;3.65;3.15;;;11.40;36.40;;;;;;1490836;39;20076;-48
2021/04/27 04:06:25;;;;;;;3.95;3.42;;;11.30;36.30;;;;;;1488428;39;20027;-48
2021/04/27 04:07:46;;;;;;;4.22;3.83;;;11.30;36.10;;;;;;1491483;39;20128;-50
2021/04/27 04:09:08;;;;;;;3.35;3.05;;;11.30;36.10;;;;;;1491786;39;20280;-49
2021/04/27 04:10:29;;;;;;;3.95;3.53;;;11.30;36.10;;;;;;1490837;39;20128;-50
2021/04/27 04:11:50;;;;;;;5.90;3.30;;;11.30;36.00;;;;;;1489639;39;20039;-49
2021/04/27 04:13:11;;;;;;;3.75;3.40;;;11.30;36.00;;;;;;1490168;39;20023;-51
2021/04/27 04:14:32;;;;;;;3.38;3.08;;;11.30;36.00;;;;;;1491412;39;20028;-48
2021/04/27 04:15:53;;;;;;;5.72;3.17;;;11.30;36.00;;;;;;1491249;39;20026;-51
2021/04/27 04:17:14;;;;;;;3.75;3.08;;;11.30;36.00;;;;;;1491565;39;20035;-51
2021/04/27 04:18:35;;;;;;;5.75;3.33;;;11.20;35.90;;;;;;1490518;39;20031;-52
2021/04/27 04:19:56;;;;;;;4.88;3.10;;;11.20;35.90;;;;;;1490529;39;20133;-51
2021/04/27 04:21:17;;;;;;;3.63;3.30;;;11.20;35.80;;;;;;1490718;39;20272;-49
2021/04/27 04:22:39;;;;;;;3.72;2.83;;;11.20;35.70;;;;;;1490816;39;20032;-50
2021/04/27 04:24:00;;;;;;;4.47;3.60;;;11.20;35.70;;;;;;1491628;39;20132;-50
2021/04/27 04:25:21;;;;;;;3.20;2.85;;;11.20;35.70;;;;;;1489454;39;20032;-53
2021/04/27 04:26:41;;;;;;;3.28;2.97;;;11.20;35.60;;;;;;1490571;39;20031;-52
2021/04/27 04:28:03;;;;;;;3.28;2.80;;;11.20;35.70;;;;;;1490933;39;20120;-52
2021/04/27 04:29:25;;;;;;;3.38;3.00;;;11.20;35.70;;;;;;1490834;39;20355;-50
2021/04/27 04:30:46;;;;;;;3.63;3.15;;;11.20;35.80;;;;;;1489622;39;20358;-51
2021/04/27 04:32:09;;;;;;;3.60;3.30;;;11.20;35.80;;;;;;1489897;39;20525;-49
2021/04/27 04:33:30;;;;;;;3.42;3.08;;;11.20;35.80;;;;;;1490163;39;20047;-51
2021/04/27 04:34:51;;;;;;;3.50;3.15;;;11.20;35.80;;;;;;1489631;39;20032;-49
2021/04/27 04:36:12;;;;;;;4.30;3.47;;;11.20;35.80;;;;;;1490432;39;20026;-50
2021/04/27 04:37:33;;;;;;;4.22;3.03;;;11.20;35.70;;;;;;1491075;39;20219;-53
2021/04/27 04:38:54;;;;;;;2.95;2.75;;;11.20;35.70;;;;;;1491472;39;20072;-52
2021/04/27 04:40:16;;;;;;;4.47;3.60;;;11.20;35.70;;;;;;1491668;39;20016;-52
2021/04/27 04:41:37;;;;;;;3.72;3.30;;;11.20;35.70;;;;;;1488303;39;20280;-54
2021/04/27 04:42:58;;;;;;;3.33;3.00;;;11.20;35.70;;;;;;1488646;39;20043;-51
2021/04/27 04:44:19;;;;;;;4.35;2.88;;;11.20;35.60;;;;;;1490727;39;20024;-49
2021/04/27 04:45:40;;;;;;;3.53;3.10;;;11.20;35.70;;;;;;1490893;39;20040;-50
2021/04/27 04:47:01;;;;;;;3.00;2.72;;;11.20;35.70;;;;;;1490760;39;20067;-54
2021/04/27 04:48:22;;;;;;;4.43;3.30;;;11.20;35.60;;;;;;1488923;39;20028;-54
2021/04/27 04:49:43;;;;;;;3.70;3.22;;;11.20;35.70;;;;;;1491007;39;20072;-53
2021/04/27 04:51:04;;;;;;;4.00;3.35;;;11.20;35.90;;;;;;1490915;39;20032;-52
2021/04/27 04:52:25;;;;;;;5.10;2.95;;;11.20;35.90;;;;;;1489657;39;20024;-52
2021/04/27 04:53:46;;;;;;;3.97;3.03;;;11.20;35.80;;;;;;1491698;39;20038;-53
2021/04/27 04:55:09;;;;;;;3.90;3.60;;;11.20;35.70;;;;;;1490615;39;20609;-51
2021/04/27 04:56:29;;;;;;;4.18;3.15;;;11.20;35.80;;;;;;1488788;39;20064;-54
2021/04/27 04:57:50;;;;;;;4.00;3.65;;;11.20;35.80;;;;;;1491014;39;20023;-53
2021/04/27 04:59:11;;;;;;;6.85;3.28;;;11.20;35.90;;;;;;1491648;39;20272;-50
2021/04/27 05:00:32;;;;;;;3.60;3.20;;;11.20;36.00;;;;;;1490496;39;20039;-52
2021/04/27 05:01:53;;;;;;;3.95;3.38;;;11.20;36.00;;;;;;1489954;39;20044;-52
2021/04/27 05:03:14;;;;;;;5.50;3.58;;;11.20;36.00;;;;;;1489802;39;20039;-53
2021/04/27 05:04:35;;;;;;;3.78;3.15;;;11.20;36.00;;;;;;1491300;39;20175;-51
2021/04/27 05:05:56;;;;;;;4.38;3.30;;;11.30;36.20;;;;;;1491428;39;20035;-53
2021/04/27 05:07:17;;;;;;;3.17;2.88;;;11.30;36.00;;;;;;1490744;39;20015;-51
2021/04/27 05:08:46;;;;;;;3.40;3.10;;;11.30;35.90;;;;;;1491608;39;20312;-50
2021/04/27 05:10:07;;;;;;;4.28;3.58;;;11.30;36.00;;;;;;1489533;39;20036;-51
2021/04/27 05:11:28;;;;;;;3.55;3.22;;;11.30;35.80;;;;;;1490718;39;20435;-52
2021/04/27 05:12:50;;;;;;;6.63;2.95;;;11.30;36.00;;;;;;1489861;39;20028;-52
2021/04/27 05:14:11;;;;;;;3.38;2.70;;;11.30;36.50;;;;;;1490923;39;20067;-50
2021/04/27 05:15:32;;;;;;;4.30;2.80;;;11.30;35.80;;;;;;1489687;39;20316;-52
2021/04/27 05:16:53;;;;;;;4.07;2.80;;;11.30;35.90;;;;;;1491228;39;20019;-49
2021/04/27 05:18:15;;;;;;;7.68;3.17;;;11.30;36.40;;;;;;1491318;39;20043;-52
2021/04/27 05:19:36;;;;;;;3.65;2.97;;;11.30;35.80;;;;;;1491467;39;20423;-51
2021/04/27 05:20:57;;;;;;;3.92;2.90;;;11.30;35.80;;;;;;1491185;39;20027;-52
2021/04/27 05:22:19;;;;;;;3.83;2.72;;;11.30;35.70;;;;;;1489131;39;20024;-53
2021/04/27 05:23:40;;;;;;;5.30;3.33;;;11.30;35.70;;;;;;1490417;39;20044;-49
2021/04/27 05:25:01;;;;;;;5.05;2.92;;;11.30;35.60;;;;;;1490310;39;20045;-50
2021/04/27 05:26:22;;;;;;;7.47;3.22;;;11.40;35.70;;;;;;1488364;39;20024;-53
2021/04/27 05:27:43;;;;;;;4.20;2.90;;;11.30;35.80;;;;;;1487960;39;20614;-49
2021/04/27 05:29:04;;;;;;;3.65;2.75;;;11.40;35.70;;;;;;1489670;39;20020;-53
2021/04/27 05:30:25;;;;;;;4.30;2.85;;;11.40;35.60;;;;;;1491253;39;20035;-52
2021/04/27 05:31:48;;;;;;;3.30;2.83;;;11.40;35.60;;;;;;1488231;39;20035;-54
2021/04/27 05:33:09;;;;;;;2.80;2.55;;;11.40;35.50;;;;;;1488642;39;20117;-48
2021/04/27 05:34:30;;;;;;;3.17;2.88;;;11.40;35.40;;;;;;1490631;39;20035;-52
2021/04/27 05:35:51;;;;;;;3.90;2.70;;;11.40;35.40;;;;;;1490895;39;20062;-51
2021/04/27 05:37:13;;;;;;;2.83;2.53;;;11.40;35.30;;;;;;1491382;39;20055;-51
2021/04/27 05:38:34;;;;;;;3.83;2.85;;;11.50;35.30;;;;;;1491055;39;20024;-49
2021/04/27 05:39:55;;;;;;;3.10;2.65;;;11.50;35.30;;;;;;1490086;39;20020;-49
2021/04/27 05:41:16;;;;;;;3.17;2.65;;;11.40;35.20;;;;;;1489782;39;20131;-52
2021/04/27 05:42:37;;;;;;;3.90;2.97;;;11.50;35.20;;;;;;1490354;39;20135;-52
2021/04/27 05:43:58;;;;;;;2.65;2.45;;;11.50;35.30;;;;;;1489099;39;20035;-49
2021/04/27 05:45:19;;;;;;;4.40;3.10;;;11.50;35.20;;;;;;1490199;39;20032;-51
2021/04/27 05:46:40;;;;;;;3.08;2.78;;;11.50;35.10;;;;;;1490149;39;20036;-53
2021/04/27 05:48:01;;;;;;;3.70;2.63;;;11.50;35.10;;;;;;1488170;39;20078;-50
2021/04/27 05:49:22;;;;;;;3.40;2.97;;;11.50;35.10;;;;;;1487622;39;20125;-52
2021/04/27 05:50:43;;;;;;;3.20;2.90;;;11.50;35.30;;;;;;1489091;39;20054;-51
2021/04/27 05:52:05;;;;;;;2.60;2.40;;;11.60;35.40;;;;;;1491156;39;20084;-51
2021/04/27 05:53:26;;;;;;;3.15;2.70;;;11.60;35.30;;;;;;1489328;39;20040;-51
2021/04/27 05:54:47;;;;;;;4.85;2.75;;;11.60;35.20;;;;;;1490772;39;20530;-53
2021/04/27 05:56:08;;;;;;;2.58;2.38;;;11.60;35.20;;;;;;1491011;39;20019;-51
2021/04/27 05:57:29;;;;;;;3.28;2.60;;;11.60;35.30;;;;;;1491087;39;20047;-51
2021/04/27 05:58:49;;;;;;;4.15;2.65;;;11.60;35.30;;;;;;1490787;39;20123;-52
2021/04/27 06:00:11;;;;;;;2.63;2.38;;;11.60;35.10;;;;;;1490574;39;20036;-50
2021/04/27 06:01:32;;;;;;;3.67;2.72;;;11.70;35.10;;;;;;1489624;39;20035;-53
2021/04/27 06:02:53;;;;;;;2.72;2.38;;;11.60;35.00;;;;;;1488875;39;20401;-53
2021/04/27 06:04:14;;;;;;;4.25;2.75;;;11.70;35.00;;;;;;1491581;39;20024;-49
2021/04/27 06:05:35;;;;;;;2.80;2.60;;;11.70;34.90;;;;;;1486331;39;20028;-53
2021/04/27 06:06:56;;;;;;;3.15;2.60;;;11.70;34.90;;;;;;1489089;39;20047;-48
2021/04/27 06:08:17;;;;;;;4.00;2.50;;;11.70;34.90;;;;;;1488953;39;20042;-53
2021/04/27 06:09:38;;;;;;;2.90;2.35;;;11.70;35.00;;;;;;1490505;39;20351;-51
2021/04/27 06:10:59;;;;;;;2.58;2.38;;;11.70;35.00;;;;;;1488687;39;20036;-50
2021/04/27 06:12:20;;;;;;;3.40;2.58;;;11.70;35.10;;;;;;1490628;39;20600;-52
2021/04/27 06:13:41;;;;;;;2.97;2.60;;;11.80;35.10;;;;;;1489668;39;20027;-50
2021/04/27 06:15:04;;;;;;;4.60;2.60;;;11.80;35.00;;;;;;1490788;39;20098;-53
2021/04/27 06:16:26;;;;;;;2.85;2.55;;;11.80;35.00;;;;;;1488366;39;20105;-52
2021/04/27 06:17:47;;;;;;;4.10;2.50;;;11.80;34.80;;;;;;1489799;39;20050;-50
2021/04/27 06:19:08;;;;;;;3.45;2.47;;;11.80;34.70;;;;;;1491195;39;20305;-52
2021/04/27 06:20:29;;;;;;;4.38;2.50;;;11.90;34.70;;;;;;1490621;39;20028;-49
2021/04/27 06:21:50;;;;;;;2.53;2.38;;;11.90;34.60;;;;;;1488454;39;20047;-53
2021/04/27 06:23:11;;;;;;;2.47;2.28;;;11.90;34.60;;;;;;1490891;39;20253;-52
2021/04/27 06:24:32;;;;;;;2.50;2.15;;;11.90;34.60;;;;;;1490962;39;20059;-52
2021/04/27 06:25:53;;;;;;;2.45;2.25;;;11.90;34.60;;;;;;1490126;39;20122;-51
2021/04/27 06:27:14;;;;;;;2.50;2.20;;;11.90;34.70;;;;;;1490613;39;20024;-53
2021/04/27 06:28:35;;;;;;;3.22;2.40;;;11.90;34.60;;;;;;1490369;39;20347;-53
2021/04/27 06:29:58;;;;;;;2.38;2.10;;;12.00;34.60;;;;;;1491383;39;20031;-51
2021/04/27 06:31:19;;;;;;;2.63;2.17;;;12.00;34.60;;;;;;1489872;39;20023;-51
2021/04/27 06:32:40;;;;;;;2.33;2.13;;;12.00;34.50;;;;;;1488865;39;20050;-51
2021/04/27 06:34:02;;;;;;;3.47;2.28;;;12.00;34.40;;;;;;1490589;39;20070;-53
2021/04/27 06:35:26;;;;;;;4.32;2.30;;;12.10;34.50;;;;;;1490322;39;20175;-52
2021/04/27 06:36:47;;;;;;;2.50;2.30;;;12.10;34.60;;;;;;1484189;39;20032;-54
2021/04/27 06:38:08;;;;;;;2.72;2.47;;;12.10;34.60;;;;;;1489377;39;20048;-53
2021/04/27 06:39:29;;;;;;;2.80;2.40;;;12.10;34.60;;;;;;1491032;39;20372;-51
2021/04/27 06:40:52;;;;;;;2.38;2.17;;;12.20;34.70;;;;;;1490940;39;20038;-52
2021/04/27 06:42:13;;;;;;;4.32;2.42;;;12.20;34.70;;;;;;1490821;39;20108;-51
2021/04/27 06:43:35;;;;;;;3.28;2.42;;;12.20;34.60;;;;;;1489492;39;20047;-54
2021/04/27 06:44:56;;;;;;;2.22;2.08;;;12.20;34.60;;;;;;1491334;39;20039;-54
2021/04/27 06:46:17;;;;;;;2.58;2.38;;;12.20;34.50;;;;;;1489490;39;20023;-53
2021/04/27 06:47:38;;;;;;;2.40;2.20;;;12.20;34.50;;;;;;1491033;39;20044;-51
2021/04/27 06:48:59;;;;;;;2.45;2.25;;;12.30;34.50;;;;;;1490728;39;20044;-52
2021/04/27 06:50:21;;;;;;;2.53;2.33;;;12.30;34.50;;;;;;1490686;39;20056;-52
2021/04/27 06:51:41;;;;;;;2.92;2.22;;;12.30;34.60;;;;;;1490065;39;20080;-53
2021/04/27 06:53:03;;;;;;;2.58;2.35;;;12.40;34.70;;;;;;1490016;39;20024;-55
2021/04/27 06:54:24;;;;;;;3.97;2.20;;;12.40;34.70;;;;;;1489962;39;20024;-51
2021/04/27 06:55:47;;;;;;;2.97;2.50;;;12.40;34.60;;;;;;1489850;39;20034;-55
2021/04/27 06:57:08;;;;;;;3.22;2.65;;;12.50;34.50;;;;;;1491840;39;20038;-52
2021/04/27 06:58:30;;;;;;;3.30;2.63;;;12.50;34.50;;;;;;1490316;39;20020;-54
2021/04/27 06:59:51;;;;;;;2.38;2.15;;;12.50;34.30;;;;;;1490089;39;20032;-54
2021/04/27 07:01:13;;;;;;;2.38;2.17;;;12.50;34.30;;;;;;1491601;39;20024;-50
2021/04/27 07:02:34;;;;;;;3.50;2.30;;;12.60;34.30;;;;;;1489235;39;20060;-50
2021/04/27 07:03:55;;;;;;;3.75;2.40;;;12.60;34.20;;;;;;1491274;39;20024;-53
2021/04/27 07:05:16;;;;;;;4.28;2.38;;;12.60;34.20;;;;;;1491307;39;20036;-53
2021/04/27 07:06:36;;;;;;;3.78;2.55;;;12.70;34.20;;;;;;1490906;39;20356;-51